sensor_id;sensor_type;location;lat;lon;timestamp;pressure;altitude;pressure_sealevel;temperature;humidity
54850;BME280;47660;51.334;12.396;2023-02-19T00:02:24;100148.47;;;13.08;100.00
54850;BME280;47660;51.334;12.396;2023-02-19T00:04:50;100143.56;;;12.79;100.00
54850;BME280;47660;51.334;12.396;2023-02-19T00:07:15;100144.91;;;12.85;100.00
54850;BME280;47660;51.334;12.396;2023-02-19T00:09:41;100136.91;;;12.85;100.00
54850;BME280;47660;51.334;12.396;2023-02-19T00:12:07;100146.03;;;12.93;100.00
54850;BME280;47660;51.334;12.396;2023-02-19T00:14:32;100136.47;;;13.36;100.00
54850;BME280;47660;51.334;12.396;2023-02-19T00:16:58;100136.13;;;13.30;100.00
54850;BME280;47660;51.334;12.396;2023-02-19T00:19:23;100141.91;;;13.12;100.00
54850;BME280;47660;51.334;12.396;2023-02-19T00:21:51;100136.03;;;13.54;100.00
54850;BME280;47660;51.334;12.396;2023-02-19T00:24:17;100129.72;;;12.74;100.00
54850;BME280;47660;51.334;12.396;2023-02-19T00:26:48;100136.16;;;13.41;100.00
54850;BME280;47660;51.334;12.396;2023-02-19T00:29:20;100128.72;;;13.79;100.00
54850;BME280;47660;51.334;12.396;2023-02-19T00:31:49;100126.53;;;13.38;100.00
54850;BME280;47660;51.334;12.396;2023-02-19T00:34:14;100123.50;;;13.20;100.00
54850;BME280;47660;51.334;12.396;2023-02-19T00:36:40;100127.69;;;13.47;100.00
54850;BME280;47660;51.334;12.396;2023-02-19T00:39:06;100131.94;;;13.03;100.00
54850;BME280;47660;51.334;12.396;2023-02-19T00:41:32;100129.50;;;12.77;100.00
54850;BME280;47660;51.334;12.396;2023-02-19T00:44:01;100119.19;;;12.84;100.00
54850;BME280;47660;51.334;12.396;2023-02-19T00:46:29;100108.28;;;12.75;100.00
54850;BME280;47660;51.334;12.396;2023-02-19T00:48:55;100118.78;;;13.13;100.00
54850;BME280;47660;51.334;12.396;2023-02-19T00:51:23;100111.91;;;12.74;100.00
54850;BME280;47660;51.334;12.396;2023-02-19T00:53:52;100104.72;;;12.63;100.00
54850;BME280;47660;51.334;12.396;2023-02-19T00:56:20;100107.06;;;12.68;100.00
54850;BME280;47660;51.334;12.396;2023-02-19T00:58:46;100102.41;;;12.59;100.00
54850;BME280;47660;51.334;12.396;2023-02-19T01:01:15;100109.59;;;12.34;100.00
54850;BME280;47660;51.334;12.396;2023-02-19T01:03:42;100102.09;;;12.39;100.00
54850;BME280;47660;51.334;12.396;2023-02-19T01:06:12;100105.22;;;12.33;100.00
54850;BME280;47660;51.334;12.396;2023-02-19T01:08:38;100110.88;;;12.53;100.00
54850;BME280;47660;51.334;12.396;2023-02-19T01:11:07;100110.22;;;12.38;100.00
54850;BME280;47660;51.334;12.396;2023-02-19T01:13:36;100109.03;;;12.42;100.00
54850;BME280;47660;51.334;12.396;2023-02-19T01:18:38;100098.41;;;12.65;100.00
54850;BME280;47660;51.334;12.396;2023-02-19T01:21:05;100083.44;;;12.39;100.00
54850;BME280;47660;51.334;12.396;2023-02-19T01:23:34;100092.38;;;12.27;100.00
54850;BME280;47660;51.334;12.396;2023-02-19T01:26:03;100095.09;;;12.97;100.00
54850;BME280;47660;51.334;12.396;2023-02-19T01:28:28;100076.66;;;12.82;100.00
54850;BME280;47660;51.334;12.396;2023-02-19T01:30:53;100080.78;;;12.39;100.00
54850;BME280;47660;51.334;12.396;2023-02-19T01:33:19;100065.88;;;12.37;100.00
54850;BME280;47660;51.334;12.396;2023-02-19T01:35:44;100060.31;;;12.40;100.00
54850;BME280;47660;51.334;12.396;2023-02-19T01:38:10;100050.50;;;12.40;100.00
54850;BME280;47660;51.334;12.396;2023-02-19T01:40:35;100054.09;;;12.28;100.00
54850;BME280;47660;51.334;12.396;2023-02-19T01:43:01;100054.34;;;12.36;100.00
54850;BME280;47660;51.334;12.396;2023-02-19T01:45:38;100052.50;;;12.61;100.00
54850;BME280;47660;51.334;12.396;2023-02-19T01:48:11;100044.09;;;12.54;100.00
54850;BME280;47660;51.334;12.396;2023-02-19T01:50:53;100046.91;;;12.53;100.00
54850;BME280;47660;51.334;12.396;2023-02-19T01:53:23;100034.44;;;12.65;100.00
54850;BME280;47660;51.334;12.396;2023-02-19T01:55:54;100021.34;;;13.07;100.00
54850;BME280;47660;51.334;12.396;2023-02-19T01:58:23;100018.56;;;12.86;100.00
54850;BME280;47660;51.334;12.396;2023-02-19T02:00:50;100022.41;;;12.47;100.00
54850;BME280;47660;51.334;12.396;2023-02-19T02:03:16;100009.00;;;12.83;100.00
54850;BME280;47660;51.334;12.396;2023-02-19T02:06:01;100003.63;;;12.60;100.00
54850;BME280;47660;51.334;12.396;2023-02-19T02:08:29;99996.28;;;12.17;100.00
54850;BME280;47660;51.334;12.396;2023-02-19T02:11:16;99992.84;;;12.51;100.00
54850;BME280;47660;51.334;12.396;2023-02-19T02:13:42;99997.56;;;12.58;100.00
54850;BME280;47660;51.334;12.396;2023-02-19T02:19:00;99969.34;;;12.78;100.00
54850;BME280;47660;51.334;12.396;2023-02-19T02:33:00;99951.91;;;12.74;100.00
54850;BME280;47660;51.334;12.396;2023-02-19T02:35:33;99945.16;;;12.12;100.00
54850;BME280;47660;51.334;12.396;2023-02-19T02:38:02;99941.97;;;12.65;100.00
54850;BME280;47660;51.334;12.396;2023-02-19T02:40:31;99936.03;;;12.50;100.00
54850;BME280;47660;51.334;12.396;2023-02-19T02:42:57;99933.50;;;12.60;100.00
54850;BME280;47660;51.334;12.396;2023-02-19T02:45:26;99930.81;;;12.26;100.00
54850;BME280;47660;51.334;12.396;2023-02-19T02:50:46;99929.72;;;12.85;100.00
54850;BME280;47660;51.334;12.396;2023-02-19T02:56:24;99922.56;;;12.40;100.00
54850;BME280;47660;51.334;12.396;2023-02-19T02:58:51;99922.44;;;12.53;100.00
54850;BME280;47660;51.334;12.396;2023-02-19T03:01:32;99927.28;;;12.82;100.00
54850;BME280;47660;51.334;12.396;2023-02-19T03:04:31;99927.19;;;12.61;100.00
54850;BME280;47660;51.334;12.396;2023-02-19T03:07:03;99922.44;;;12.30;100.00
54850;BME280;47660;51.334;12.396;2023-02-19T03:09:37;99904.72;;;12.18;100.00
54850;BME280;47660;51.334;12.396;2023-02-19T03:12:13;99899.69;;;12.49;100.00
54850;BME280;47660;51.334;12.396;2023-02-19T03:15:05;99888.16;;;12.26;100.00
54850;BME280;47660;51.334;12.396;2023-02-19T03:17:55;99880.91;;;12.28;100.00
54850;BME280;47660;51.334;12.396;2023-02-19T03:20:47;99893.44;;;12.03;100.00
54850;BME280;47660;51.334;12.396;2023-02-19T03:23:16;99886.31;;;12.03;100.00
54850;BME280;47660;51.334;12.396;2023-02-19T03:25:43;99895.38;;;12.01;100.00
54850;BME280;47660;51.334;12.396;2023-02-19T03:28:32;99891.06;;;12.23;100.00
54850;BME280;47660;51.334;12.396;2023-02-19T03:31:20;99891.66;;;12.15;100.00
54850;BME280;47660;51.334;12.396;2023-02-19T03:33:53;99889.03;;;12.38;100.00
54850;BME280;47660;51.334;12.396;2023-02-19T03:36:21;99895.41;;;12.12;100.00
54850;BME280;47660;51.334;12.396;2023-02-19T03:39:02;99887.41;;;12.12;100.00
54850;BME280;47660;51.334;12.396;2023-02-19T03:49:48;99865.56;;;11.96;100.00
54850;BME280;47660;51.334;12.396;2023-02-19T03:55:07;99865.28;;;12.46;100.00
54850;BME280;47660;51.334;12.396;2023-02-19T03:57:55;99862.09;;;12.63;100.00
54850;BME280;47660;51.334;12.396;2023-02-19T04:00:31;99848.28;;;12.58;100.00
54850;BME280;47660;51.334;12.396;2023-02-19T04:05:42;99856.28;;;12.70;100.00
54850;BME280;47660;51.334;12.396;2023-02-19T04:08:17;99862.47;;;12.47;100.00
54850;BME280;47660;51.334;12.396;2023-02-19T04:10:48;99852.19;;;12.43;100.00
54850;BME280;47660;51.334;12.396;2023-02-19T04:13:28;99850.19;;;12.79;100.00
54850;BME280;47660;51.334;12.396;2023-02-19T04:15:59;99852.31;;;13.08;100.00
54850;BME280;47660;51.334;12.396;2023-02-19T04:18:30;99854.31;;;12.95;100.00
54850;BME280;47660;51.334;12.396;2023-02-19T04:20:57;99868.88;;;12.68;100.00
54850;BME280;47660;51.334;12.396;2023-02-19T04:23:33;99863.31;;;12.14;100.00
54850;BME280;47660;51.334;12.396;2023-02-19T04:26:00;99882.13;;;12.24;100.00
54850;BME280;47660;51.334;12.396;2023-02-19T04:28:27;99883.41;;;12.07;100.00
54850;BME280;47660;51.334;12.396;2023-02-19T04:30:53;99882.59;;;12.17;100.00
54850;BME280;47660;51.334;12.396;2023-02-19T04:33:18;99879.56;;;12.22;100.00
54850;BME280;47660;51.334;12.396;2023-02-19T04:35:48;99898.47;;;12.30;100.00
54850;BME280;47660;51.334;12.396;2023-02-19T04:38:16;99900.09;;;11.97;100.00
54850;BME280;47660;51.334;12.396;2023-02-19T04:40:43;99903.75;;;12.19;100.00
54850;BME280;47660;51.334;12.396;2023-02-19T04:43:09;99916.72;;;12.12;100.00
54850;BME280;47660;51.334;12.396;2023-02-19T04:45:36;99918.09;;;11.94;100.00
54850;BME280;47660;51.334;12.396;2023-02-19T04:48:02;99907.66;;;12.38;100.00
54850;BME280;47660;51.334;12.396;2023-02-19T04:50:27;99915.78;;;12.25;100.00
54850;BME280;47660;51.334;12.396;2023-02-19T04:52:53;99920.72;;;12.18;100.00
54850;BME280;47660;51.334;12.396;2023-02-19T04:55:24;99913.59;;;11.83;100.00
54850;BME280;47660;51.334;12.396;2023-02-19T04:57:49;99913.41;;;11.62;100.00
54850;BME280;47660;51.334;12.396;2023-02-19T05:00:15;99904.28;;;11.88;100.00
54850;BME280;47660;51.334;12.396;2023-02-19T05:02:42;99910.81;;;11.84;100.00
54850;BME280;47660;51.334;12.396;2023-02-19T05:05:08;99914.66;;;12.16;100.00
54850;BME280;47660;51.334;12.396;2023-02-19T05:07:33;99911.16;;;12.15;100.00
54850;BME280;47660;51.334;12.396;2023-02-19T05:09:59;99909.44;;;12.03;100.00
54850;BME280;47660;51.334;12.396;2023-02-19T05:12:28;99897.16;;;11.89;100.00
54850;BME280;47660;51.334;12.396;2023-02-19T05:14:54;99903.31;;;12.37;100.00
54850;BME280;47660;51.334;12.396;2023-02-19T05:17:19;99900.59;;;12.14;100.00
54850;BME280;47660;51.334;12.396;2023-02-19T05:19:45;99905.84;;;12.38;100.00
54850;BME280;47660;51.334;12.396;2023-02-19T05:22:13;99893.72;;;12.34;100.00
54850;BME280;47660;51.334;12.396;2023-02-19T05:24:39;99908.75;;;12.46;100.00
54850;BME280;47660;51.334;12.396;2023-02-19T05:27:04;99907.34;;;11.95;100.00
54850;BME280;47660;51.334;12.396;2023-02-19T05:29:30;99910.94;;;12.53;100.00
54850;BME280;47660;51.334;12.396;2023-02-19T05:31:58;99903.41;;;12.12;100.00
54850;BME280;47660;51.334;12.396;2023-02-19T05:34:23;99907.53;;;12.39;100.00
54850;BME280;47660;51.334;12.396;2023-02-19T05:36:49;99913.34;;;12.22;100.00
54850;BME280;47660;51.334;12.396;2023-02-19T05:39:14;99916.03;;;12.22;100.00
54850;BME280;47660;51.334;12.396;2023-02-19T05:41:40;99902.91;;;12.30;100.00
54850;BME280;47660;51.334;12.396;2023-02-19T05:44:05;99913.38;;;12.44;100.00
54850;BME280;47660;51.334;12.396;2023-02-19T05:46:31;99912.03;;;12.61;100.00
54850;BME280;47660;51.334;12.396;2023-02-19T05:48:58;99914.72;;;12.50;100.00
54850;BME280;47660;51.334;12.396;2023-02-19T05:51:25;99916.03;;;12.56;100.00
54850;BME280;47660;51.334;12.396;2023-02-19T05:53:52;99922.47;;;12.42;100.00
54850;BME280;47660;51.334;12.396;2023-02-19T05:56:41;99925.34;;;12.61;100.00
54850;BME280;47660;51.334;12.396;2023-02-19T05:59:17;99919.31;;;12.37;100.00
54850;BME280;47660;51.334;12.396;2023-02-19T06:01:44;99919.41;;;12.46;100.00
54850;BME280;47660;51.334;12.396;2023-02-19T06:04:10;99926.91;;;12.41;100.00
54850;BME280;47660;51.334;12.396;2023-02-19T06:06:36;99931.16;;;12.32;100.00
54850;BME280;47660;51.334;12.396;2023-02-19T06:09:03;99933.34;;;12.73;100.00
54850;BME280;47660;51.334;12.396;2023-02-19T06:11:28;99935.16;;;12.95;100.00
54850;BME280;47660;51.334;12.396;2023-02-19T06:13:56;99937.47;;;12.43;100.00
54850;BME280;47660;51.334;12.396;2023-02-19T06:16:22;99954.66;;;12.27;100.00
54850;BME280;47660;51.334;12.396;2023-02-19T06:18:48;99949.94;;;12.88;100.00
54850;BME280;47660;51.334;12.396;2023-02-19T06:21:23;99950.34;;;12.95;100.00
54850;BME280;47660;51.334;12.396;2023-02-19T06:23:49;99951.66;;;12.66;100.00
54850;BME280;47660;51.334;12.396;2023-02-19T06:26:17;99957.38;;;12.84;100.00
54850;BME280;47660;51.334;12.396;2023-02-19T06:28:46;99969.34;;;13.01;100.00
54850;BME280;47660;51.334;12.396;2023-02-19T06:31:12;99965.81;;;12.32;100.00
54850;BME280;47660;51.334;12.396;2023-02-19T06:33:38;99971.75;;;12.36;100.00
54850;BME280;47660;51.334;12.396;2023-02-19T06:36:10;99980.94;;;12.21;100.00
54850;BME280;47660;51.334;12.396;2023-02-19T06:38:36;99979.03;;;12.45;100.00
54850;BME280;47660;51.334;12.396;2023-02-19T06:41:03;99985.94;;;12.37;100.00
54850;BME280;47660;51.334;12.396;2023-02-19T06:43:30;99986.59;;;12.16;100.00
54850;BME280;47660;51.334;12.396;2023-02-19T06:46:00;99993.72;;;12.85;100.00
54850;BME280;47660;51.334;12.396;2023-02-19T06:48:26;100000.63;;;12.99;100.00
54850;BME280;47660;51.334;12.396;2023-02-19T06:50:55;100020.25;;;12.64;100.00
54850;BME280;47660;51.334;12.396;2023-02-19T06:53:21;100035.38;;;12.41;100.00
54850;BME280;47660;51.334;12.396;2023-02-19T06:58:21;100057.03;;;12.00;100.00
54850;BME280;47660;51.334;12.396;2023-02-19T07:00:46;100057.66;;;11.67;100.00
54850;BME280;47660;51.334;12.396;2023-02-19T07:03:16;100062.72;;;11.83;100.00
54850;BME280;47660;51.334;12.396;2023-02-19T07:05:44;100071.56;;;11.46;100.00
54850;BME280;47660;51.334;12.396;2023-02-19T07:08:10;100087.69;;;11.69;100.00
54850;BME280;47660;51.334;12.396;2023-02-19T07:10:35;100094.00;;;11.55;100.00
54850;BME280;47660;51.334;12.396;2023-02-19T07:13:01;100084.88;;;11.33;100.00
54850;BME280;47660;51.334;12.396;2023-02-19T07:15:26;100106.63;;;11.14;100.00
54850;BME280;47660;51.334;12.396;2023-02-19T07:17:58;100099.16;;;10.80;100.00
54850;BME280;47660;51.334;12.396;2023-02-19T07:20:23;100116.16;;;10.65;100.00
54850;BME280;47660;51.334;12.396;2023-02-19T07:22:51;100117.88;;;10.38;100.00
54850;BME280;47660;51.334;12.396;2023-02-19T07:25:19;100130.72;;;10.59;100.00
54850;BME280;47660;51.334;12.396;2023-02-19T07:27:45;100143.78;;;10.49;100.00
54850;BME280;47660;51.334;12.396;2023-02-19T07:30:14;100156.66;;;10.28;100.00
54850;BME280;47660;51.334;12.396;2023-02-19T07:32:41;100169.81;;;10.30;100.00
54850;BME280;47660;51.334;12.396;2023-02-19T07:35:06;100159.19;;;10.30;100.00
54850;BME280;47660;51.334;12.396;2023-02-19T07:37:32;100172.44;;;10.44;100.00
54850;BME280;47660;51.334;12.396;2023-02-19T07:39:57;100182.09;;;10.18;100.00
54850;BME280;47660;51.334;12.396;2023-02-19T07:42:23;100193.44;;;9.92;100.00
54850;BME280;47660;51.334;12.396;2023-02-19T07:44:48;100201.72;;;10.15;100.00
54850;BME280;47660;51.334;12.396;2023-02-19T07:47:14;100209.28;;;10.21;100.00
54850;BME280;47660;51.334;12.396;2023-02-19T07:49:39;100219.34;;;10.31;100.00
54850;BME280;47660;51.334;12.396;2023-02-19T07:52:05;100226.38;;;10.17;100.00
54850;BME280;47660;51.334;12.396;2023-02-19T07:54:30;100234.63;;;10.27;100.00
54850;BME280;47660;51.334;12.396;2023-02-19T07:56:56;100235.66;;;10.24;100.00
54850;BME280;47660;51.334;12.396;2023-02-19T07:59:24;100247.09;;;9.83;100.00
54850;BME280;47660;51.334;12.396;2023-02-19T08:01:52;100254.22;;;9.68;100.00
54850;BME280;47660;51.334;12.396;2023-02-19T08:04:39;100262.53;;;10.05;100.00
54850;BME280;47660;51.334;12.396;2023-02-19T08:07:05;100264.50;;;10.16;100.00
54850;BME280;47660;51.334;12.396;2023-02-19T08:09:30;100264.06;;;10.09;100.00
54850;BME280;47660;51.334;12.396;2023-02-19T08:12:00;100272.84;;;10.24;100.00
54850;BME280;47660;51.334;12.396;2023-02-19T08:14:45;100279.31;;;10.20;100.00
54850;BME280;47660;51.334;12.396;2023-02-19T08:17:10;100283.03;;;10.18;100.00
54850;BME280;47660;51.334;12.396;2023-02-19T08:19:39;100283.00;;;10.32;100.00
54850;BME280;47660;51.334;12.396;2023-02-19T08:22:04;100289.97;;;10.06;100.00
54850;BME280;47660;51.334;12.396;2023-02-19T08:24:31;100298.75;;;10.21;100.00
54850;BME280;47660;51.334;12.396;2023-02-19T08:26:58;100312.31;;;10.16;100.00
54850;BME280;47660;51.334;12.396;2023-02-19T08:29:23;100313.56;;;9.96;100.00
54850;BME280;47660;51.334;12.396;2023-02-19T08:31:49;100326.06;;;9.79;100.00
54850;BME280;47660;51.334;12.396;2023-02-19T08:34:19;100348.53;;;9.88;100.00
54850;BME280;47660;51.334;12.396;2023-02-19T08:36:47;100364.38;;;9.75;100.00
54850;BME280;47660;51.334;12.396;2023-02-19T08:39:15;100372.97;;;9.34;100.00
54850;BME280;47660;51.334;12.396;2023-02-19T08:41:43;100375.63;;;9.34;100.00
54850;BME280;47660;51.334;12.396;2023-02-19T08:44:17;100381.13;;;9.45;100.00
54850;BME280;47660;51.334;12.396;2023-02-19T08:47:03;100393.28;;;8.71;100.00
54850;BME280;47660;51.334;12.396;2023-02-19T08:49:33;100397.31;;;8.78;100.00
54850;BME280;47660;51.334;12.396;2023-02-19T08:52:04;100390.41;;;9.38;100.00
54850;BME280;47660;51.334;12.396;2023-02-19T08:54:38;100395.66;;;9.24;100.00
54850;BME280;47660;51.334;12.396;2023-02-19T08:57:04;100403.53;;;9.09;100.00
54850;BME280;47660;51.334;12.396;2023-02-19T08:59:30;100418.31;;;9.29;100.00
54850;BME280;47660;51.334;12.396;2023-02-19T09:01:59;100417.69;;;9.56;100.00
54850;BME280;47660;51.334;12.396;2023-02-19T09:04:30;100432.88;;;9.06;100.00
54850;BME280;47660;51.334;12.396;2023-02-19T09:06:56;100433.22;;;9.32;100.00
54850;BME280;47660;51.334;12.396;2023-02-19T09:09:21;100430.94;;;9.56;100.00
54850;BME280;47660;51.334;12.396;2023-02-19T09:11:49;100438.38;;;9.49;100.00
54850;BME280;47660;51.334;12.396;2023-02-19T09:14:14;100439.88;;;9.23;100.00
54850;BME280;47660;51.334;12.396;2023-02-19T09:16:40;100454.56;;;9.91;100.00
54850;BME280;47660;51.334;12.396;2023-02-19T09:19:05;100447.13;;;9.51;100.00
54850;BME280;47660;51.334;12.396;2023-02-19T09:21:35;100450.22;;;9.44;100.00
54850;BME280;47660;51.334;12.396;2023-02-19T09:24:00;100466.03;;;9.92;100.00
54850;BME280;47660;51.334;12.396;2023-02-19T09:26:29;100482.50;;;9.36;100.00
54850;BME280;47660;51.334;12.396;2023-02-19T09:28:54;100479.19;;;9.63;100.00
54850;BME280;47660;51.334;12.396;2023-02-19T09:31:20;100479.53;;;9.57;100.00
54850;BME280;47660;51.334;12.396;2023-02-19T09:33:47;100477.28;;;10.11;100.00
54850;BME280;47660;51.334;12.396;2023-02-19T09:36:15;100485.59;;;10.05;100.00
54850;BME280;47660;51.334;12.396;2023-02-19T09:38:41;100481.06;;;10.07;100.00
54850;BME280;47660;51.334;12.396;2023-02-19T09:41:16;100495.22;;;9.92;100.00
54850;BME280;47660;51.334;12.396;2023-02-19T09:43:42;100489.56;;;9.98;100.00
54850;BME280;47660;51.334;12.396;2023-02-19T09:48:52;100507.97;;;9.39;100.00
54850;BME280;47660;51.334;12.396;2023-02-19T09:51:23;100503.66;;;9.84;100.00
54850;BME280;47660;51.334;12.396;2023-02-19T09:53:55;100508.84;;;10.02;100.00
54850;BME280;47660;51.334;12.396;2023-02-19T09:56:26;100509.03;;;10.13;100.00
54850;BME280;47660;51.334;12.396;2023-02-19T09:58:56;100511.44;;;10.77;100.00
54850;BME280;47660;51.334;12.396;2023-02-19T10:01:29;100525.28;;;10.39;100.00
54850;BME280;47660;51.334;12.396;2023-02-19T10:03:56;100540.78;;;10.61;100.00
54850;BME280;47660;51.334;12.396;2023-02-19T10:06:24;100546.94;;;10.47;100.00
54850;BME280;47660;51.334;12.396;2023-02-19T10:08:53;100552.72;;;9.77;100.00
54850;BME280;47660;51.334;12.396;2023-02-19T10:11:23;100557.78;;;10.59;100.00
54850;BME280;47660;51.334;12.396;2023-02-19T10:13:54;100564.66;;;10.00;100.00
54850;BME280;47660;51.334;12.396;2023-02-19T10:16:25;100575.56;;;9.63;100.00
54850;BME280;47660;51.334;12.396;2023-02-19T10:18:55;100561.31;;;10.74;100.00
54850;BME280;47660;51.334;12.396;2023-02-19T10:21:23;100573.16;;;10.68;100.00
54850;BME280;47660;51.334;12.396;2023-02-19T10:23:52;100564.44;;;10.80;100.00
54850;BME280;47660;51.334;12.396;2023-02-19T10:26:19;100572.03;;;10.42;100.00
54850;BME280;47660;51.334;12.396;2023-02-19T10:28:44;100575.50;;;10.58;100.00
54850;BME280;47660;51.334;12.396;2023-02-19T10:31:19;100577.31;;;10.27;100.00
54850;BME280;47660;51.334;12.396;2023-02-19T10:36:24;100590.47;;;9.98;100.00
54850;BME280;47660;51.334;12.396;2023-02-19T10:38:52;100603.31;;;10.06;100.00
54850;BME280;47660;51.334;12.396;2023-02-19T10:41:23;100610.94;;;9.96;100.00
54850;BME280;47660;51.334;12.396;2023-02-19T10:46:30;100612.91;;;9.92;100.00
54850;BME280;47660;51.334;12.396;2023-02-19T10:49:00;100608.56;;;9.91;100.00
54850;BME280;47660;51.334;12.396;2023-02-19T10:51:37;100619.25;;;9.74;100.00
54850;BME280;47660;51.334;12.396;2023-02-19T10:54:15;100623.69;;;10.05;100.00
54850;BME280;47660;51.334;12.396;2023-02-19T10:56:41;100631.69;;;10.36;100.00
54850;BME280;47660;51.334;12.396;2023-02-19T10:59:27;100631.31;;;10.89;99.43
54850;BME280;47660;51.334;12.396;2023-02-19T11:02:14;100631.25;;;10.60;100.00
54850;BME280;47660;51.334;12.396;2023-02-19T11:05:10;100644.50;;;10.13;100.00
54850;BME280;47660;51.334;12.396;2023-02-19T11:10:21;100652.47;;;10.29;99.17
54850;BME280;47660;51.334;12.396;2023-02-19T11:12:52;100659.59;;;10.90;100.00
54850;BME280;47660;51.334;12.396;2023-02-19T11:15:27;100663.25;;;10.26;92.76
54850;BME280;47660;51.334;12.396;2023-02-19T11:20:59;100664.31;;;9.91;100.00
54850;BME280;47660;51.334;12.396;2023-02-19T11:23:44;100675.59;;;9.63;96.29
54850;BME280;47660;51.334;12.396;2023-02-19T11:26:20;100680.22;;;10.39;93.82
54850;BME280;47660;51.334;12.396;2023-02-19T11:29:20;100676.44;;;10.60;96.46
54850;BME280;47660;51.334;12.396;2023-02-19T11:31:48;100686.38;;;9.76;100.00
54850;BME280;47660;51.334;12.396;2023-02-19T11:36:40;100692.53;;;10.73;93.20
54850;BME280;47660;51.334;12.396;2023-02-19T11:39:32;100685.50;;;10.72;89.96
54850;BME280;47660;51.334;12.396;2023-02-19T11:42:32;100685.19;;;10.46;96.04
54850;BME280;47660;51.334;12.396;2023-02-19T11:53:28;100703.34;;;11.14;80.36
54850;BME280;47660;51.334;12.396;2023-02-19T11:56:17;100709.41;;;10.72;81.44
54850;BME280;47660;51.334;12.396;2023-02-19T11:58:56;100713.78;;;9.60;93.56
54850;BME280;47660;51.334;12.396;2023-02-19T12:01:44;100708.16;;;9.83;97.37
54850;BME280;47660;51.334;12.396;2023-02-19T12:10:27;100696.09;;;10.09;88.58
54850;BME280;47660;51.334;12.396;2023-02-19T12:18:38;100701.06;;;10.47;91.16
54850;BME280;47660;51.334;12.396;2023-02-19T12:21:24;100698.44;;;10.92;80.17
54850;BME280;47660;51.334;12.396;2023-02-19T12:31:54;100696.13;;;11.17;77.94
54850;BME280;47660;51.334;12.396;2023-02-19T12:39:56;100703.19;;;11.47;79.52
54850;BME280;47660;51.334;12.396;2023-02-19T12:45:05;100709.16;;;11.21;75.25
54850;BME280;47660;51.334;12.396;2023-02-19T12:47:38;100722.13;;;10.34;84.75
54850;BME280;47660;51.334;12.396;2023-02-19T12:53:18;100713.81;;;10.57;74.56
54850;BME280;47660;51.334;12.396;2023-02-19T12:55:48;100726.34;;;10.85;77.37
54850;BME280;47660;51.334;12.396;2023-02-19T13:00:53;100723.22;;;10.62;76.51
54850;BME280;47660;51.334;12.396;2023-02-19T13:03:32;100728.22;;;10.99;69.74
54850;BME280;47660;51.334;12.396;2023-02-19T13:06:10;100741.16;;;10.43;68.16
54850;BME280;47660;51.334;12.396;2023-02-19T13:13:50;100733.59;;;10.97;69.91
54850;BME280;47660;51.334;12.396;2023-02-19T13:16:19;100733.53;;;10.99;69.42
54850;BME280;47660;51.334;12.396;2023-02-19T13:18:54;100729.97;;;11.58;64.93
54850;BME280;47660;51.334;12.396;2023-02-19T13:21:29;100743.03;;;10.24;70.22
54850;BME280;47660;51.334;12.396;2023-02-19T13:24:35;100738.66;;;10.72;64.79
54850;BME280;47660;51.334;12.396;2023-02-19T13:27:35;100730.94;;;11.86;63.77
54850;BME280;47660;51.334;12.396;2023-02-19T13:33:26;100735.03;;;11.48;62.69
54850;BME280;47660;51.334;12.396;2023-02-19T13:36:03;100742.28;;;11.75;63.07
54850;BME280;47660;51.334;12.396;2023-02-19T13:38:37;100739.13;;;11.97;61.84
54850;BME280;47660;51.334;12.396;2023-02-19T13:41:06;100753.03;;;11.14;64.51
54850;BME280;47660;51.334;12.396;2023-02-19T13:43:44;100756.69;;;11.42;64.62
54850;BME280;47660;51.334;12.396;2023-02-19T13:46:15;100744.44;;;11.68;63.90
54850;BME280;47660;51.334;12.396;2023-02-19T13:48:42;100749.25;;;11.18;61.45
54850;BME280;47660;51.334;12.396;2023-02-19T14:04:23;100788.91;;;11.07;62.31
54850;BME280;47660;51.334;12.396;2023-02-19T14:19:45;100783.38;;;12.14;56.50
54850;BME280;47660;51.334;12.396;2023-02-19T14:23:33;100780.66;;;12.29;55.09
54850;BME280;47660;51.334;12.396;2023-02-19T14:33:23;100778.34;;;13.19;51.77
54850;BME280;47660;51.334;12.396;2023-02-19T14:35:53;100779.25;;;13.59;51.85
54850;BME280;47660;51.334;12.396;2023-02-19T14:38:24;100767.00;;;15.05;46.50
54850;BME280;47660;51.334;12.396;2023-02-19T14:40:51;100769.38;;;16.69;44.80
54850;BME280;47660;51.334;12.396;2023-02-19T14:43:23;100768.56;;;18.66;39.06
54850;BME280;47660;51.334;12.396;2023-02-19T14:46:05;100770.75;;;17.60;39.69
54850;BME280;47660;51.334;12.396;2023-02-19T14:48:37;100771.66;;;16.07;43.83
54850;BME280;47660;51.334;12.396;2023-02-19T14:51:08;100776.59;;;17.22;40.49
54850;BME280;47660;51.334;12.396;2023-02-19T14:53:38;100770.00;;;18.51;40.00
54850;BME280;47660;51.334;12.396;2023-02-19T14:56:20;100777.06;;;16.62;42.37
54850;BME280;47660;51.334;12.396;2023-02-19T14:59:07;100757.50;;;17.68;40.41
54850;BME280;47660;51.334;12.396;2023-02-19T15:01:36;100763.53;;;16.09;41.07
54850;BME280;47660;51.334;12.396;2023-02-19T15:04:01;100778.44;;;15.54;42.76
54850;BME280;47660;51.334;12.396;2023-02-19T15:06:27;100789.22;;;13.70;45.37
54850;BME280;47660;51.334;12.396;2023-02-19T15:09:03;100777.44;;;16.58;41.20
54850;BME280;47660;51.334;12.396;2023-02-19T15:11:33;100777.69;;;17.62;39.78
54850;BME280;47660;51.334;12.396;2023-02-19T15:14:04;100777.56;;;17.21;40.07